Starbuck, Washington
Current Conditions -  °F | °C
As of 4:53 PM on Friday 24 Oct 2014 (Local Time) from KALW Reporting Station
Light Rain Light Rain  
Wind Chill: 54°   Ceiling: 7000
Heat Index: 54°   Visibility: 4mi
Dew Point: 52°   Wind: 5mph
Humidity: 93%   Direction: 160°SSE
Pressure: 29.97"   Gusts: NA
Location:  46.52°N, 118.13°W
Report Text: KALW 242353Z 16004KT 4SM -RA BR OVC070 12/11 A2997 RMK AO2 SLP151 P0001 60002 T01220111 10161 20122 58011
Loading
Personal Weather Stations






























Interactive Weather Map
Tropical Storm Tracking
New forecast layout! Learn more

10-Day Weather Forecast

Advertisements
Track Severe Weather on mobile